This is the latest recevied weather packets stored in our database for station/object OH2HCY. If no packets are shown the sender has not sent any weather packets the latest 10 day(s).
| Time | Temp. | Humidity | Pressure | Rain* | Wind** | Luminosity | Snow |
|---|---|---|---|---|---|---|---|
| 1777703965 | 13.33° C | 53% | 1006.5 hPa | - | - | - | - |
| 1777703440 | 13.33° C | 54% | 1006.6 hPa | - | - | - | - |
| 1777702860 | 12.78° C | 56% | 1006.9 hPa | - | - | - | - |
| 1777702335 | 12.22° C | 56% | 1007 hPa | - | - | - | - |
| 1777701804 | 11.67° C | 58% | 1007.3 hPa | - | - | - | - |
| 1777701240 | 11.11° C | 60% | 1007.5 hPa | - | - | - | - |
| 1777700715 | 11.11° C | 61% | 1007.6 hPa | - | - | - | - |
| 1777700180 | 10.56° C | 62% | 1007.9 hPa | - | - | - | - |
| 1777699643 | 10° C | 65% | 1008.3 hPa | - | - | - | - |
| 1777699090 | 9.44° C | 68% | 1008.6 hPa | - | - | - | - |
| 1777698580 | 8.89° C | 70% | 1009.1 hPa | - | - | - | - |
| 1777698020 | 8.33° C | 72% | 1009.2 hPa | - | - | - | - |
| 1777697457 | 7.78° C | 73% | 1009.5 hPa | - | - | - | - |
| 1777696925 | 7.78° C | 73% | 1009.6 hPa | - | - | - | - |
| 1777696375 | 7.78° C | 74% | 1009.8 hPa | - | - | - | - |
| 1777695820 | 7.22° C | 75% | 1009.9 hPa | - | - | - | - |
| 1777695265 | 6.67° C | 76% | 1010.1 hPa | - | - | - | - |
| 1777694750 | 6.67° C | 77% | 1010.2 hPa | - | - | - | - |
| 1777694195 | 6.11° C | 78% | 1010.4 hPa | - | - | - | - |
| 1777693664 | 5.56° C | 80% | 1010.7 hPa | - | - | - | - |
| 1777693135 | 5.56° C | 81% | 1010.8 hPa | - | - | - | - |
| 1777692620 | 5.56° C | 80% | 1010.8 hPa | - | - | - | - |
| 1777692050 | 5.56° C | 79% | 1010.8 hPa | - | - | - | - |
| 1777691545 | 5.56° C | 80% | 1010.8 hPa | - | - | - | - |
| 1777691010 | 5° C | 79% | 1011 hPa | - | - | - | - |
* Rain since midnight (hover to see other rain measurements)
** Current wind speed in m/s (hover to see current wind gust speed)